Kitakyushu Airport Kitakyushu JP
ICAO: RJFR
IATA: KKJ
Category: Medium
Scheduled Services: Yes

Elevation: 21 ft
TransAlt. 0 ft.

Airport Communications:
RDO:118.85

RJFR Zoom In..

If you have problems with the map follow the link
https://www.worldairports.se/pages/airport.php?
ICAO=RJFR

Runways:

(A) RW 18 length 8202 ft width 197 ft
ILS 109.15 / hdg 177

(B) RW 36 length 8202 ft width 197 ft
---- / hdg 357

Location; RJFR
Day. 22 / Time. 12.00 Zulu
* QNH: 1015
* Temperature: 09° c. 48.2°f.
* Wind from: 360° Speed 04 kn.
Dewpoint: 04° c.
Visibility: 10 km or more.
Clouds: Few 3000 ft.
Clouds: Scattered 6000 ft.
Clouds: Broken 9000 ft.

RJFR 221200Z 36004KT 9999 FEW030 SCT060 BKN090 09/04 Q1015


Wind From 360°
Speed 04 kn.

 
 
jpsmedia.com for Web Design worldairports.se 2019   terms of use